createdAt,value
2023-05-09T00:02:03.122Z,2.70
2023-05-09T00:04:30.776Z,2.50
2023-05-09T00:06:57.846Z,2.50
2023-05-09T00:09:24.995Z,2.10
2023-05-09T00:11:57.157Z,2.30
2023-05-09T00:14:24.374Z,2.20
2023-05-09T00:16:52.282Z,2.40
2023-05-09T00:19:20.165Z,1.90
2023-05-09T00:21:47.853Z,2.60
2023-05-09T00:24:14.701Z,2.20
2023-05-09T00:26:41.474Z,2.50
2023-05-09T00:29:13.541Z,2.20
2023-05-09T00:31:40.643Z,1.90
2023-05-09T00:34:08.073Z,2.10
2023-05-09T00:36:35.132Z,2.30
2023-05-09T00:39:02.002Z,2.10
2023-05-09T00:41:30.079Z,2.50
2023-05-09T00:43:57.585Z,2.30
2023-05-09T00:46:25.872Z,2.40
2023-05-09T00:48:52.751Z,2.20
2023-05-09T00:51:19.824Z,2.00
2023-05-09T00:53:47.081Z,2.10
2023-05-09T00:56:14.278Z,2.50
2023-05-09T00:58:41.322Z,2.10
2023-05-09T01:01:08.413Z,2.10
2023-05-09T01:03:38.455Z,2.40
2023-05-09T01:06:27.044Z,1.90
2023-05-09T01:09:25.143Z,2.10
2023-05-09T01:12:19.108Z,2.10
2023-05-09T01:15:24.222Z,2.10
2023-05-09T01:17:58.417Z,2.60
2023-05-09T01:20:52.803Z,3.00
2023-05-09T01:23:46.031Z,2.90
2023-05-09T01:26:34.727Z,3.40
2023-05-09T01:29:29.800Z,3.50
2023-05-09T01:31:56.750Z,3.10
2023-05-09T01:34:26.044Z,3.30
2023-05-09T01:36:55.359Z,3.10
2023-05-09T01:39:22.116Z,3.00
2023-05-09T01:41:49.124Z,3.20
2023-05-09T01:44:17.081Z,2.90
2023-05-09T01:46:44.438Z,3.00
2023-05-09T01:49:11.450Z,3.00
2023-05-09T01:51:38.339Z,2.60
2023-05-09T01:54:06.021Z,2.60
2023-05-09T01:56:35.761Z,2.60
2023-05-09T01:59:02.711Z,2.30
2023-05-09T02:01:30.397Z,2.10
2023-05-09T02:04:02.401Z,2.30
2023-05-09T02:06:30.696Z,2.60
2023-05-09T02:08:57.649Z,2.30
2023-05-09T02:11:25.970Z,2.30
2023-05-09T02:13:53.160Z,2.20
2023-05-09T02:16:20.787Z,2.50
2023-05-09T02:18:48.117Z,2.60
2023-05-09T02:21:15.028Z,2.40
2023-05-09T02:23:42.062Z,2.50
2023-05-09T02:26:08.937Z,2.30
2023-05-09T02:28:36.006Z,2.30
2023-05-09T02:31:03.477Z,2.50
2023-05-09T02:33:41.957Z,2.10
2023-05-09T02:36:09.310Z,2.30
2023-05-09T02:38:41.292Z,3.20
2023-05-09T02:41:12.854Z,3.40
2023-05-09T02:43:45.330Z,3.20
2023-05-09T02:46:12.257Z,2.60
2023-05-09T02:48:39.941Z,2.40
2023-05-09T02:51:07.372Z,2.50
2023-05-09T02:53:34.327Z,2.40
2023-05-09T02:56:01.193Z,2.60
2023-05-09T02:58:28.189Z,2.40
2023-05-09T03:00:55.054Z,2.40
2023-05-09T03:03:22.904Z,2.50
2023-05-09T03:05:50.711Z,2.90
2023-05-09T03:08:17.743Z,2.50
2023-05-09T03:10:44.861Z,2.30
2023-05-09T03:13:11.713Z,2.40
2023-05-09T03:15:38.644Z,2.50
2023-05-09T03:18:06.343Z,2.30
2023-05-09T03:20:33.491Z,2.50
2023-05-09T03:23:00.364Z,2.50
2023-05-09T03:25:27.215Z,2.50
2023-05-09T03:27:54.064Z,2.00
2023-05-09T03:30:21.479Z,3.20
2023-05-09T03:32:49.061Z,2.80
2023-05-09T03:35:16.225Z,2.90
2023-05-09T03:37:43.407Z,2.50
2023-05-09T03:40:10.908Z,2.40
2023-05-09T03:42:43.630Z,2.20
2023-05-09T03:45:11.255Z,3.20
2023-05-09T03:47:39.186Z,3.80
2023-05-09T03:50:11.152Z,3.20
2023-05-09T03:52:39.384Z,2.60
2023-05-09T03:55:07.148Z,3.00
2023-05-09T03:57:35.272Z,2.40
2023-05-09T04:00:04.578Z,2.50
2023-05-09T04:02:41.815Z,2.90
2023-05-09T04:05:11.583Z,2.90
2023-05-09T04:07:38.487Z,2.60
2023-05-09T04:10:07.088Z,2.60
2023-05-09T04:12:35.207Z,2.50
2023-05-09T04:15:02.341Z,2.30
2023-05-09T04:17:30.822Z,4.00
2023-05-09T04:19:57.792Z,3.00
2023-05-09T04:22:24.623Z,2.80
2023-05-09T04:24:51.642Z,2.10
2023-05-09T04:27:18.643Z,3.90
2023-05-09T04:29:45.904Z,3.10
2023-05-09T04:32:13.482Z,2.30
2023-05-09T04:34:41.070Z,3.00
2023-05-09T04:37:13.982Z,2.60
2023-05-09T04:39:41.704Z,2.80
2023-05-09T04:42:15.156Z,3.50
2023-05-09T04:44:42.046Z,2.60
2023-05-09T04:47:08.991Z,3.00
2023-05-09T04:49:36.164Z,3.00
2023-05-09T04:52:08.187Z,2.60
2023-05-09T04:54:35.096Z,2.80
2023-05-09T04:57:16.429Z,3.20
2023-05-09T04:59:45.613Z,2.60
2023-05-09T05:02:13.237Z,3.50
2023-05-09T05:04:41.569Z,2.40
2023-05-09T05:07:19.221Z,2.50
2023-05-09T05:09:46.001Z,2.80
2023-05-09T05:12:13.987Z,2.80
2023-05-09T05:14:41.569Z,3.20
2023-05-09T05:17:09.212Z,3.10
2023-05-09T05:19:36.416Z,2.70
2023-05-09T05:22:04.102Z,2.70
2023-05-09T05:24:31.810Z,2.90
2023-05-09T05:26:58.660Z,3.00
2023-05-09T05:29:25.572Z,3.40
2023-05-09T05:31:52.452Z,2.90
2023-05-09T05:34:20.903Z,2.80
2023-05-09T05:36:47.915Z,2.70
2023-05-09T05:39:14.924Z,2.80
2023-05-09T05:41:43.145Z,2.40
2023-05-09T05:44:15.142Z,3.20
2023-05-09T05:46:42.016Z,4.10
2023-05-09T05:49:14.251Z,3.70
2023-05-09T05:51:46.169Z,3.90
2023-05-09T05:54:13.423Z,3.50
2023-05-09T05:56:45.494Z,4.20
2023-05-09T05:59:13.625Z,2.70
2023-05-09T06:01:41.059Z,3.20
2023-05-09T06:04:08.076Z,2.50
2023-05-09T06:06:35.188Z,3.50
2023-05-09T06:09:02.345Z,3.30
2023-05-09T06:11:29.290Z,4.00
2023-05-09T06:13:56.301Z,3.10
2023-05-09T06:16:23.414Z,3.20
2023-05-09T06:18:51.214Z,3.60
2023-05-09T06:21:20.713Z,3.20
2023-05-09T06:24:02.056Z,3.40
2023-05-09T06:26:38.144Z,3.40
2023-05-09T06:29:05.828Z,3.70
2023-05-09T06:31:35.233Z,2.90
2023-05-09T06:34:02.068Z,2.90
2023-05-09T06:36:29.096Z,3.30
2023-05-09T06:39:01.008Z,2.70
2023-05-09T06:41:27.956Z,2.90
2023-05-09T06:43:54.932Z,3.70
2023-05-09T06:46:21.933Z,3.20
2023-05-09T06:48:48.974Z,3.30
2023-05-09T06:51:16.954Z,3.50
2023-05-09T06:53:44.010Z,3.20
2023-05-09T06:56:11.250Z,3.70
2023-05-09T06:58:38.094Z,3.00
2023-05-09T07:01:05.058Z,3.60
2023-05-09T07:03:32.576Z,3.10
2023-05-09T07:05:59.452Z,3.80
2023-05-09T07:08:26.686Z,3.10
2023-05-09T07:10:53.787Z,3.30
2023-05-09T07:13:20.757Z,3.90
2023-05-09T07:15:47.728Z,3.60
2023-05-09T07:18:16.064Z,3.70
2023-05-09T07:20:43.127Z,3.50
2023-05-09T07:23:10.270Z,3.30
2023-05-09T07:25:37.163Z,3.20
2023-05-09T07:28:04.500Z,3.40
2023-05-09T07:30:32.733Z,3.40
2023-05-09T07:33:00.762Z,3.20
2023-05-09T07:35:27.869Z,3.20
2023-05-09T07:37:55.225Z,2.90
2023-05-09T07:40:22.184Z,3.00
2023-05-09T07:42:50.972Z,3.10
2023-05-09T07:45:19.940Z,3.80
2023-05-09T07:47:48.097Z,3.10
2023-05-09T07:50:16.391Z,3.50
2023-05-09T07:52:43.329Z,3.20
2023-05-09T07:55:11.798Z,3.50
2023-05-09T07:57:39.309Z,3.10
2023-05-09T08:00:09.975Z,3.00
2023-05-09T08:02:42.850Z,4.30
2023-05-09T08:05:10.932Z,3.70
2023-05-09T08:07:38.249Z,4.40
2023-05-09T08:10:06.305Z,3.80
2023-05-09T08:12:33.637Z,5.50
2023-05-09T08:15:00.581Z,4.40
2023-05-09T08:17:27.607Z,4.00
2023-05-09T08:19:54.978Z,4.50
2023-05-09T08:22:22.491Z,5.00
2023-05-09T08:24:49.519Z,3.30
2023-05-09T08:27:21.658Z,3.50
2023-05-09T08:29:48.706Z,3.90
2023-05-09T08:32:15.922Z,3.10
2023-05-09T08:34:43.340Z,3.10
2023-05-09T08:37:15.630Z,3.00
2023-05-09T08:39:42.755Z,3.50
2023-05-09T08:42:11.483Z,2.90
2023-05-09T08:44:39.071Z,2.90
2023-05-09T08:47:07.414Z,3.00
2023-05-09T08:49:35.727Z,4.20
2023-05-09T08:52:03.577Z,3.00
2023-05-09T08:54:32.492Z,2.90
2023-05-09T08:57:06.628Z,3.00
2023-05-09T08:59:36.861Z,3.30
2023-05-09T09:02:07.766Z,2.50
2023-05-09T09:04:36.656Z,2.50
2023-05-09T09:07:04.406Z,2.60
2023-05-09T09:09:32.688Z,2.60
2023-05-09T09:12:01.412Z,2.00
2023-05-09T09:14:31.478Z,2.30
2023-05-09T09:17:00.510Z,2.10
2023-05-09T09:19:30.479Z,2.00
2023-05-09T09:21:59.650Z,2.30
2023-05-09T09:24:26.603Z,2.40
2023-05-09T09:26:55.102Z,1.70
2023-05-09T09:29:27.698Z,1.80
2023-05-09T09:31:55.766Z,1.90
2023-05-09T09:34:23.663Z,2.60
2023-05-09T09:36:51.487Z,2.10
2023-05-09T09:39:21.093Z,1.80
2023-05-09T09:41:50.475Z,1.60
2023-05-09T09:44:22.456Z,1.90
2023-05-09T09:46:55.971Z,2.00
2023-05-09T09:49:27.458Z,2.10
2023-05-09T09:51:58.495Z,2.30
2023-05-09T09:54:29.818Z,2.40
2023-05-09T09:56:58.982Z,2.70
2023-05-09T09:59:27.789Z,2.60
2023-05-09T10:02:08.004Z,2.50
2023-05-09T10:04:41.437Z,2.00
2023-05-09T10:07:14.489Z,2.00
2023-05-09T10:09:48.432Z,2.40
2023-05-09T10:12:20.460Z,2.20
2023-05-09T10:14:50.922Z,2.40
2023-05-09T10:17:20.928Z,2.70
2023-05-09T10:19:51.958Z,2.20
2023-05-09T10:22:22.452Z,3.10
2023-05-09T10:25:06.484Z,2.20
2023-05-09T10:27:37.100Z,2.20
2023-05-09T10:30:14.453Z,2.20
2023-05-09T10:33:00.424Z,2.20
2023-05-09T10:38:05.512Z,2.10
2023-05-09T10:40:36.462Z,2.30
2023-05-09T10:49:37.411Z,2.10
2023-05-09T10:52:04.639Z,2.20
2023-05-09T10:54:33.747Z,2.10
2023-05-09T10:57:01.344Z,2.40
2023-05-09T10:59:35.759Z,2.20
2023-05-09T11:02:03.838Z,1.60
2023-05-09T11:04:34.169Z,2.80
2023-05-09T11:07:01.264Z,3.50
2023-05-09T11:09:29.475Z,2.40
2023-05-09T11:12:05.995Z,2.10
2023-05-09T11:14:48.158Z,2.90
2023-05-09T11:17:21.270Z,2.50
2023-05-09T11:19:51.166Z,2.80
2023-05-09T11:22:28.212Z,2.00
2023-05-09T11:25:08.647Z,2.20
2023-05-09T11:27:43.789Z,2.10
2023-05-09T11:30:16.142Z,1.90
2023-05-09T11:32:46.137Z,2.00
2023-05-09T11:35:14.438Z,2.10
2023-05-09T11:37:56.181Z,2.30
2023-05-09T11:40:23.459Z,2.00
2023-05-09T11:42:57.746Z,2.20
2023-05-09T11:45:32.348Z,2.20
2023-05-09T11:48:00.462Z,2.20
2023-05-09T11:50:27.831Z,2.30
2023-05-09T11:52:54.802Z,2.20
2023-05-09T11:55:22.153Z,2.90
2023-05-09T11:57:52.113Z,4.10
2023-05-09T12:00:21.506Z,3.50
2023-05-09T12:02:48.759Z,2.30
2023-05-09T12:05:18.109Z,2.30
2023-05-09T12:07:46.579Z,2.50
2023-05-09T12:10:20.821Z,1.90
2023-05-09T12:12:52.333Z,2.00
2023-05-09T12:15:20.745Z,2.30
2023-05-09T12:17:49.740Z,2.20
2023-05-09T12:20:19.389Z,2.30
2023-05-09T12:22:47.740Z,2.20
2023-05-09T12:25:15.779Z,2.30
2023-05-09T12:27:43.502Z,2.20
2023-05-09T12:30:13.614Z,2.60
2023-05-09T12:32:42.391Z,2.30
2023-05-09T12:35:09.882Z,2.30
2023-05-09T12:37:38.029Z,2.30
2023-05-09T12:40:11.752Z,2.20
2023-05-09T12:42:38.855Z,2.00
2023-05-09T12:45:07.854Z,2.30
2023-05-09T12:47:37.252Z,2.20
2023-05-09T12:50:05.893Z,2.30
2023-05-09T12:52:50.130Z,2.50
2023-05-09T12:55:21.989Z,3.90
2023-05-09T12:58:00.132Z,2.50
2023-05-09T13:00:27.918Z,2.10
2023-05-09T13:02:55.211Z,2.10
2023-05-09T13:05:22.617Z,2.40
2023-05-09T13:07:54.334Z,2.10
2023-05-09T13:10:27.910Z,3.30
2023-05-09T13:12:55.449Z,2.90
2023-05-09T13:15:26.152Z,3.20
2023-05-09T13:17:54.032Z,3.40
2023-05-09T13:20:22.238Z,3.50
2023-05-09T13:22:50.036Z,2.60
2023-05-09T13:25:20.048Z,2.40
2023-05-09T13:27:48.291Z,2.20
2023-05-09T13:30:18.340Z,3.00
2023-05-09T13:32:47.014Z,4.50
2023-05-09T13:35:14.576Z,2.50
2023-05-09T13:37:42.550Z,2.40
2023-05-09T13:40:11.592Z,1.80
2023-05-09T13:42:38.874Z,2.80
2023-05-09T13:45:06.566Z,2.80
2023-05-09T13:47:36.566Z,2.90
2023-05-09T13:50:06.421Z,3.10
2023-05-09T13:52:33.646Z,2.80
2023-05-09T13:55:01.048Z,2.60
2023-05-09T13:57:28.249Z,2.20
2023-05-09T13:59:55.228Z,2.90
2023-05-09T14:02:24.011Z,2.20
2023-05-09T14:04:51.397Z,2.70
2023-05-09T14:07:20.439Z,2.70
2023-05-09T14:09:48.151Z,3.30
2023-05-09T14:12:18.778Z,2.70
2023-05-09T14:14:46.770Z,2.30
2023-05-09T14:17:14.404Z,2.10
2023-05-09T14:19:41.307Z,2.20
2023-05-09T14:22:09.883Z,2.40
2023-05-09T14:24:38.479Z,2.30
2023-05-09T14:27:05.412Z,2.60
2023-05-09T14:29:36.205Z,2.60
2023-05-09T14:32:03.283Z,2.80
2023-05-09T14:34:30.403Z,2.30
2023-05-09T14:36:57.410Z,2.20
2023-05-09T14:39:24.783Z,2.90
2023-05-09T14:41:51.964Z,3.10
2023-05-09T14:44:19.562Z,3.50
2023-05-09T14:46:48.162Z,2.30
2023-05-09T14:49:15.040Z,2.80
2023-05-09T14:51:42.126Z,3.00
2023-05-09T14:54:09.095Z,2.70
2023-05-09T14:56:36.284Z,2.80
2023-05-09T14:59:03.755Z,2.50
2023-05-09T15:01:36.197Z,2.50
2023-05-09T15:04:03.457Z,2.90
2023-05-09T15:06:31.483Z,3.00
2023-05-09T15:08:59.873Z,2.70
2023-05-09T15:11:28.713Z,2.60
2023-05-09T15:13:58.216Z,3.20
2023-05-09T15:16:25.762Z,3.50
2023-05-09T15:18:52.785Z,2.70
2023-05-09T15:21:19.883Z,3.10
2023-05-09T15:23:47.148Z,3.40
2023-05-09T15:26:13.993Z,3.00
2023-05-09T15:28:41.661Z,2.10
2023-05-09T15:31:08.984Z,2.30
2023-05-09T15:33:36.018Z,2.40
2023-05-09T15:36:03.020Z,2.30
2023-05-09T15:38:30.477Z,3.80
2023-05-09T15:41:00.513Z,3.30
2023-05-09T15:43:27.445Z,3.40
2023-05-09T15:45:54.382Z,2.70
2023-05-09T15:48:21.882Z,3.40
2023-05-09T15:50:49.283Z,2.60
2023-05-09T15:53:22.652Z,3.20
2023-05-09T15:55:49.553Z,2.90
2023-05-09T15:58:16.848Z,2.70
2023-05-09T16:00:50.543Z,2.50
2023-05-09T16:03:17.910Z,2.70
2023-05-09T16:05:45.343Z,2.90
2023-05-09T16:08:12.658Z,2.80
2023-05-09T16:10:40.259Z,2.70
2023-05-09T16:13:08.178Z,3.20
2023-05-09T16:15:35.795Z,2.60
2023-05-09T16:18:03.215Z,2.60
2023-05-09T16:20:31.291Z,2.50
2023-05-09T16:22:59.284Z,2.40
2023-05-09T16:25:26.309Z,2.40
2023-05-09T16:27:54.925Z,2.40
2023-05-09T16:30:24.283Z,2.70
2023-05-09T16:32:52.054Z,2.70
2023-05-09T16:35:18.967Z,2.60
2023-05-09T16:37:47.417Z,2.80
2023-05-09T16:40:15.693Z,3.20
2023-05-09T16:42:43.888Z,2.60
2023-05-09T16:45:11.195Z,3.60
2023-05-09T16:47:38.367Z,3.10
2023-05-09T16:50:05.758Z,3.00
2023-05-09T16:52:38.030Z,3.10
2023-05-09T16:55:07.084Z,3.50
2023-05-09T16:57:34.456Z,2.20
2023-05-09T17:00:01.707Z,3.00
2023-05-09T17:02:29.728Z,2.70
2023-05-09T17:04:57.039Z,3.10
2023-05-09T17:07:24.199Z,2.90
2023-05-09T17:09:51.701Z,2.90
2023-05-09T17:12:24.076Z,3.20
2023-05-09T17:14:51.595Z,2.70
2023-05-09T17:17:18.458Z,3.10
2023-05-09T17:19:46.095Z,2.70
2023-05-09T17:22:13.818Z,3.60
2023-05-09T17:24:41.333Z,2.70
2023-05-09T17:27:10.503Z,2.90
2023-05-09T17:29:39.010Z,3.10
2023-05-09T17:32:06.987Z,3.30
2023-05-09T17:34:34.843Z,2.80
2023-05-09T17:37:02.516Z,3.40
2023-05-09T17:39:30.124Z,2.80
2023-05-09T17:41:57.667Z,3.50
2023-05-09T17:44:24.479Z,3.50
2023-05-09T17:46:51.712Z,3.10
2023-05-09T17:49:19.131Z,3.30
2023-05-09T17:51:46.644Z,3.10
2023-05-09T17:54:13.724Z,3.20
2023-05-09T17:56:40.985Z,3.20
2023-05-09T17:59:08.749Z,2.90
2023-05-09T18:01:35.983Z,3.20
2023-05-09T18:04:02.958Z,3.10
2023-05-09T18:06:30.838Z,2.70
2023-05-09T18:08:58.015Z,2.60
2023-05-09T18:11:25.875Z,2.40
2023-05-09T18:13:53.006Z,2.60
2023-05-09T18:16:20.153Z,2.70
2023-05-09T18:18:47.470Z,2.50
2023-05-09T18:21:14.455Z,2.70
2023-05-09T18:23:42.017Z,2.80
2023-05-09T18:26:09.475Z,2.40
2023-05-09T18:28:40.080Z,2.20
2023-05-09T18:31:12.468Z,2.50
2023-05-09T18:33:40.241Z,2.60
2023-05-09T18:36:09.415Z,2.80
2023-05-09T18:38:39.676Z,2.40
2023-05-09T18:41:12.836Z,3.00
2023-05-09T18:43:46.078Z,2.80
2023-05-09T18:46:17.092Z,2.80
2023-05-09T18:48:44.859Z,2.60
2023-05-09T18:51:11.804Z,2.60
2023-05-09T18:53:39.375Z,2.50
2023-05-09T18:56:07.096Z,2.60
2023-05-09T18:58:35.778Z,2.50
2023-05-09T19:01:03.410Z,3.90
2023-05-09T19:03:32.934Z,3.40
2023-05-09T19:06:00.292Z,2.50
2023-05-09T19:08:28.802Z,2.80
2023-05-09T19:10:56.026Z,2.30
2023-05-09T19:13:24.162Z,3.00
2023-05-09T19:15:51.423Z,2.50
2023-05-09T19:18:18.763Z,2.10
2023-05-09T19:20:47.205Z,2.40
2023-05-09T19:23:15.641Z,2.40
2023-05-09T19:25:42.593Z,2.30
2023-05-09T19:28:10.581Z,2.70
2023-05-09T19:30:37.867Z,2.40
2023-05-09T19:33:05.473Z,2.20
2023-05-09T19:35:32.731Z,2.40
2023-05-09T19:37:59.861Z,2.20
2023-05-09T19:40:26.922Z,2.10
2023-05-09T19:42:54.817Z,2.40
2023-05-09T19:45:22.481Z,2.50
2023-05-09T19:47:49.722Z,2.70
2023-05-09T19:50:17.159Z,2.60
2023-05-09T19:52:44.495Z,2.70
2023-05-09T19:55:12.905Z,2.80
2023-05-09T19:57:39.799Z,3.40
2023-05-09T20:00:07.913Z,2.40
2023-05-09T20:02:35.216Z,2.60
2023-05-09T20:05:03.400Z,3.00
2023-05-09T20:07:31.394Z,2.90
2023-05-09T20:09:58.745Z,2.40
2023-05-09T20:12:29.348Z,3.00
2023-05-09T20:14:58.018Z,2.50
2023-05-09T20:17:25.007Z,3.30
2023-05-09T20:20:03.154Z,2.60
2023-05-09T20:22:30.406Z,2.40
2023-05-09T20:25:03.074Z,2.80
2023-05-09T20:27:30.409Z,2.70
2023-05-09T20:29:57.499Z,2.70
2023-05-09T20:32:24.893Z,2.70
2023-05-09T20:34:52.040Z,2.20
2023-05-09T20:37:18.991Z,3.00
2023-05-09T20:39:51.481Z,2.80
2023-05-09T20:42:18.696Z,3.00
2023-05-09T20:44:47.331Z,2.60
2023-05-09T20:47:20.346Z,3.00
2023-05-09T20:49:48.562Z,2.60
2023-05-09T20:52:15.922Z,2.50
2023-05-09T20:54:43.012Z,3.20
2023-05-09T20:57:10.021Z,2.20
2023-05-09T20:59:36.929Z,2.20
2023-05-09T21:02:04.135Z,2.60
2023-05-09T21:04:32.455Z,2.20
2023-05-09T21:06:59.596Z,2.50
2023-05-09T21:09:26.645Z,2.40
2023-05-09T21:11:53.586Z,2.60
2023-05-09T21:14:20.681Z,2.60
2023-05-09T21:16:48.657Z,2.20
2023-05-09T21:19:15.620Z,2.40
2023-05-09T21:21:43.254Z,2.70
2023-05-09T21:24:10.173Z,2.20
2023-05-09T21:26:37.195Z,2.30
2023-05-09T21:29:05.183Z,2.40
2023-05-09T21:31:32.118Z,2.30
2023-05-09T21:34:00.843Z,2.20
2023-05-09T21:36:28.524Z,2.30
2023-05-09T21:38:55.682Z,2.20
2023-05-09T21:41:27.658Z,2.50
2023-05-09T21:43:54.684Z,2.40
2023-05-09T21:46:22.302Z,2.30
2023-05-09T21:48:49.495Z,2.30
2023-05-09T21:51:16.606Z,2.00
2023-05-09T21:53:44.930Z,2.90
2023-05-09T21:56:13.995Z,2.20
2023-05-09T21:58:41.193Z,2.40
2023-05-09T22:01:08.100Z,2.30
2023-05-09T22:03:36.189Z,2.10
2023-05-09T22:06:03.487Z,2.30
2023-05-09T22:08:36.781Z,2.40
2023-05-09T22:11:05.464Z,2.60
2023-05-09T22:13:35.177Z,2.90
2023-05-09T22:16:03.138Z,2.50
2023-05-09T22:18:30.603Z,2.00
2023-05-09T22:20:58.551Z,2.20
2023-05-09T22:23:26.473Z,2.20
2023-05-09T22:25:58.794Z,2.40
2023-05-09T22:28:26.501Z,2.40
2023-05-09T22:30:53.542Z,2.30
2023-05-09T22:33:21.431Z,2.50
2023-05-09T22:35:48.701Z,2.50
2023-05-09T22:38:15.799Z,2.40
2023-05-09T22:40:42.894Z,2.50
2023-05-09T22:43:10.616Z,2.20
2023-05-09T22:45:37.656Z,2.50
2023-05-09T22:48:05.326Z,2.50
2023-05-09T22:50:32.451Z,2.80
2023-05-09T22:53:00.249Z,2.50
2023-05-09T22:55:27.064Z,2.40
2023-05-09T22:57:54.106Z,2.40
2023-05-09T23:00:21.301Z,2.70
2023-05-09T23:02:48.880Z,2.90
2023-05-09T23:05:16.019Z,3.40
2023-05-09T23:07:44.412Z,2.90
2023-05-09T23:10:16.613Z,2.70
2023-05-09T23:12:44.000Z,2.50
2023-05-09T23:15:11.322Z,3.10
2023-05-09T23:17:38.571Z,3.10
2023-05-09T23:20:08.165Z,2.90
2023-05-09T23:22:35.265Z,2.90
2023-05-09T23:25:02.832Z,3.00
2023-05-09T23:27:30.785Z,3.50
2023-05-09T23:29:58.096Z,3.10
2023-05-09T23:32:25.148Z,3.10
2023-05-09T23:34:52.958Z,3.00
2023-05-09T23:37:19.912Z,3.20
2023-05-09T23:39:52.064Z,3.10
2023-05-09T23:42:19.730Z,3.50
2023-05-09T23:44:47.176Z,2.90
2023-05-09T23:47:14.235Z,3.10
2023-05-09T23:49:42.549Z,3.30
2023-05-09T23:52:09.812Z,2.60
2023-05-09T23:54:38.224Z,3.00
2023-05-09T23:57:05.255Z,3.10
2023-05-09T23:59:32.405Z,3.10
